Atlantik Pride — 9HA2480 — position and weather

sailwx.info

Track history (hours):
 
Tides and Currents Weather Stations Pressure Air Temp Water Temp Dewpoint Dewpoint Depression Visibility Wind Speed Wind Dir Waves Ship Positions

Atlantik Pride

Last reported at 2017-Dec-11 17:00 UTC. Time now 2017-Dec-12 20:12 UTC.
Position N 35°58' W 005°43'.

Length 140 m; draft 6.4 m.

Type: Ship. MMSI: 248713000.

Date/timePositionNaut miles runAvg speedWind from/ knotsBaromVisibWave heightAir tempDewpointWater temp
2017-Dec-11 17:00N 35°58' W 005°43'  
2017-Dec-04 10:03N 37°31' W 000°15'211.0
2017-Dec-04 09:54N 37°32' W 000°13'16210.0
2017-Dec-03 17:44N 39°22' E 002°18'410.4
2017-Dec-03 17:23N 39°25' E 002°20'3 7.3
2017-Dec-03 17:00N 39°24' E 002°24'5 9.9
2017-Dec-03 16:30N 39°21' E 002°28'510.0
2017-Dec-03 16:00N 39°17' E 002°32'510.1
2017-Dec-03 15:30N 39°13' E 002°37'510.1
2017-Dec-03 15:00N 39°09' E 002°41'510.0
2017-Dec-03 14:30N 39°05' E 002°44'255 7.4
2017-Dec-02 03:46N 43°01' E 004°53'310.7
2017-Dec-02 03:30N 43°04' E 004°55'610.7
2017-Dec-02 02:56N 43°09' E 004°59'610.6
2017-Dec-02 02:24N 43°15' E 004°59'511.2
2017-Dec-02 01:58N 43°19' E 004°59'4 9.0
2017-Dec-02 01:30N 43°23' E 004°56'  
Track history (hours):
 
Tides and Currents Weather Stations Pressure Air Temp Water Temp Dewpoint Dewpoint Depression Visibility Wind Speed Wind Dir Waves Ship Positions

Atlantik Pride

Last reported at 2017-Dec-11 17:00 UTC. Time now 2017-Dec-12 20:12 UTC.
Position N 35°58' W 005°43'.

Length 140 m; draft 6.4 m.

Type: Ship. MMSI: 248713000.

Date/timePositionNaut miles runAvg speedWind from/ knotsBaromVisibWave heightAir tempDewpointWater temp
2017-Dec-11 17:00N 35°58' W 005°43'  
2017-Dec-04 10:03N 37°31' W 000°15'211.0
2017-Dec-04 09:54N 37°32' W 000°13'16210.0
2017-Dec-03 17:44N 39°22' E 002°18'410.4
2017-Dec-03 17:23N 39°25' E 002°20'3 7.3
2017-Dec-03 17:00N 39°24' E 002°24'5 9.9
2017-Dec-03 16:30N 39°21' E 002°28'510.0
2017-Dec-03 16:00N 39°17' E 002°32'510.1
2017-Dec-03 15:30N 39°13' E 002°37'510.1
2017-Dec-03 15:00N 39°09' E 002°41'510.0
2017-Dec-03 14:30N 39°05' E 002°44'255 7.4
2017-Dec-02 03:46N 43°01' E 004°53'310.7
2017-Dec-02 03:30N 43°04' E 004°55'610.7
2017-Dec-02 02:56N 43°09' E 004°59'610.6
2017-Dec-02 02:24N 43°15' E 004°59'511.2
2017-Dec-02 01:58N 43°19' E 004°59'4 9.0
2017-Dec-02 01:30N 43°23' E 004°56'  

Dump ship's entire track history